sensor_id;sensor_type;location;lat;lon;timestamp;P1;durP1;ratioP1;P2;durP2;ratioP2
73382;SDS011;61600;48.126;11.542;2022-09-02T00:01:44;5.15;;;2.78;;
73382;SDS011;61600;48.126;11.542;2022-09-02T00:04:18;7.45;;;2.53;;
73382;SDS011;61600;48.126;11.542;2022-09-02T00:06:44;4.03;;;2.63;;
73382;SDS011;61600;48.126;11.542;2022-09-02T00:09:11;3.92;;;2.50;;
73382;SDS011;61600;48.126;11.542;2022-09-02T00:11:37;3.58;;;2.10;;
73382;SDS011;61600;48.126;11.542;2022-09-02T00:14:06;4.93;;;2.67;;
73382;SDS011;61600;48.126;11.542;2022-09-02T00:16:32;4.68;;;2.65;;
73382;SDS011;61600;48.126;11.542;2022-09-02T00:18:58;5.25;;;2.70;;
73382;SDS011;61600;48.126;11.542;2022-09-02T00:21:25;3.50;;;2.03;;
73382;SDS011;61600;48.126;11.542;2022-09-02T00:23:51;3.65;;;2.55;;
73382;SDS011;61600;48.126;11.542;2022-09-02T00:26:16;5.15;;;2.72;;
73382;SDS011;61600;48.126;11.542;2022-09-02T00:28:42;5.45;;;2.97;;
73382;SDS011;61600;48.126;11.542;2022-09-02T00:31:08;7.15;;;2.60;;
73382;SDS011;61600;48.126;11.542;2022-09-02T00:33:33;3.60;;;2.45;;
73382;SDS011;61600;48.126;11.542;2022-09-02T00:36:00;5.90;;;2.80;;
73382;SDS011;61600;48.126;11.542;2022-09-02T00:38:26;4.28;;;2.53;;
73382;SDS011;61600;48.126;11.542;2022-09-02T00:40:51;4.20;;;2.58;;
73382;SDS011;61600;48.126;11.542;2022-09-02T00:43:22;4.07;;;2.35;;
73382;SDS011;61600;48.126;11.542;2022-09-02T00:45:47;3.63;;;2.55;;
73382;SDS011;61600;48.126;11.542;2022-09-02T00:48:13;5.05;;;2.33;;
73382;SDS011;61600;48.126;11.542;2022-09-02T00:50:38;5.93;;;2.40;;
73382;SDS011;61600;48.126;11.542;2022-09-02T00:53:05;4.13;;;2.80;;
73382;SDS011;61600;48.126;11.542;2022-09-02T00:55:34;4.00;;;2.30;;
73382;SDS011;61600;48.126;11.542;2022-09-02T00:58:03;5.20;;;2.60;;
73382;SDS011;61600;48.126;11.542;2022-09-02T01:00:30;4.82;;;2.60;;
73382;SDS011;61600;48.126;11.542;2022-09-02T01:03:00;3.95;;;2.75;;
73382;SDS011;61600;48.126;11.542;2022-09-02T01:05:28;9.30;;;2.80;;
73382;SDS011;61600;48.126;11.542;2022-09-02T01:07:54;4.75;;;2.33;;
73382;SDS011;61600;48.126;11.542;2022-09-02T01:10:21;4.80;;;2.80;;
73382;SDS011;61600;48.126;11.542;2022-09-02T01:12:48;4.43;;;2.70;;
73382;SDS011;61600;48.126;11.542;2022-09-02T01:15:13;4.05;;;2.55;;
73382;SDS011;61600;48.126;11.542;2022-09-02T01:17:40;5.72;;;2.45;;
73382;SDS011;61600;48.126;11.542;2022-09-02T01:20:07;4.95;;;2.40;;
73382;SDS011;61600;48.126;11.542;2022-09-02T01:22:36;4.60;;;2.40;;
73382;SDS011;61600;48.126;11.542;2022-09-02T01:25:04;6.68;;;3.60;;
73382;SDS011;61600;48.126;11.542;2022-09-02T01:27:31;4.47;;;2.67;;
73382;SDS011;61600;48.126;11.542;2022-09-02T01:29:57;4.80;;;2.90;;
73382;SDS011;61600;48.126;11.542;2022-09-02T01:32:23;4.05;;;2.47;;
73382;SDS011;61600;48.126;11.542;2022-09-02T01:34:49;4.75;;;2.60;;
73382;SDS011;61600;48.126;11.542;2022-09-02T01:37:15;4.13;;;2.58;;
73382;SDS011;61600;48.126;11.542;2022-09-02T01:39:41;4.50;;;2.60;;
73382;SDS011;61600;48.126;11.542;2022-09-02T01:42:07;6.85;;;3.05;;
73382;SDS011;61600;48.126;11.542;2022-09-02T01:44:33;4.82;;;2.58;;
73382;SDS011;61600;48.126;11.542;2022-09-02T01:46:59;4.53;;;2.97;;
73382;SDS011;61600;48.126;11.542;2022-09-02T01:49:25;5.63;;;2.88;;
73382;SDS011;61600;48.126;11.542;2022-09-02T01:51:53;5.07;;;2.72;;
73382;SDS011;61600;48.126;11.542;2022-09-02T01:54:18;5.72;;;3.17;;
73382;SDS011;61600;48.126;11.542;2022-09-02T01:56:44;5.03;;;2.90;;
73382;SDS011;61600;48.126;11.542;2022-09-02T01:59:09;5.60;;;3.20;;
73382;SDS011;61600;48.126;11.542;2022-09-02T02:01:42;4.07;;;2.67;;
73382;SDS011;61600;48.126;11.542;2022-09-02T02:04:07;3.42;;;2.70;;
73382;SDS011;61600;48.126;11.542;2022-09-02T02:06:34;4.95;;;2.92;;
73382;SDS011;61600;48.126;11.542;2022-09-02T02:08:59;3.92;;;2.75;;
73382;SDS011;61600;48.126;11.542;2022-09-02T02:11:25;4.50;;;2.72;;
73382;SDS011;61600;48.126;11.542;2022-09-02T02:13:50;5.22;;;3.00;;
73382;SDS011;61600;48.126;11.542;2022-09-02T02:16:15;5.33;;;2.90;;
73382;SDS011;61600;48.126;11.542;2022-09-02T02:18:41;6.10;;;3.03;;
73382;SDS011;61600;48.126;11.542;2022-09-02T02:21:06;5.55;;;3.15;;
73382;SDS011;61600;48.126;11.542;2022-09-02T02:23:32;3.90;;;2.88;;
73382;SDS011;61600;48.126;11.542;2022-09-02T02:25:57;4.20;;;2.78;;
73382;SDS011;61600;48.126;11.542;2022-09-02T02:28:23;5.90;;;3.30;;
73382;SDS011;61600;48.126;11.542;2022-09-02T02:30:48;5.65;;;3.05;;
73382;SDS011;61600;48.126;11.542;2022-09-02T02:33:14;5.80;;;3.05;;
73382;SDS011;61600;48.126;11.542;2022-09-02T02:35:39;6.53;;;3.10;;
73382;SDS011;61600;48.126;11.542;2022-09-02T02:38:05;5.13;;;3.17;;
73382;SDS011;61600;48.126;11.542;2022-09-02T02:40:31;6.07;;;2.90;;
73382;SDS011;61600;48.126;11.542;2022-09-02T02:42:56;5.13;;;3.08;;
73382;SDS011;61600;48.126;11.542;2022-09-02T02:45:22;4.28;;;3.08;;
73382;SDS011;61600;48.126;11.542;2022-09-02T02:47:47;5.70;;;2.90;;
73382;SDS011;61600;48.126;11.542;2022-09-02T02:50:14;6.72;;;3.20;;
73382;SDS011;61600;48.126;11.542;2022-09-02T02:52:41;5.68;;;3.58;;
73382;SDS011;61600;48.126;11.542;2022-09-02T02:55:07;4.97;;;3.08;;
73382;SDS011;61600;48.126;11.542;2022-09-02T02:57:33;6.60;;;2.97;;
73382;SDS011;61600;48.126;11.542;2022-09-02T03:02:31;4.82;;;3.53;;
73382;SDS011;61600;48.126;11.542;2022-09-02T03:04:59;5.53;;;2.97;;
73382;SDS011;61600;48.126;11.542;2022-09-02T03:07:26;4.72;;;3.30;;
73382;SDS011;61600;48.126;11.542;2022-09-02T03:09:51;6.35;;;3.78;;
73382;SDS011;61600;48.126;11.542;2022-09-02T03:12:17;6.78;;;3.33;;
73382;SDS011;61600;48.126;11.542;2022-09-02T03:14:43;4.72;;;3.10;;
73382;SDS011;61600;48.126;11.542;2022-09-02T03:17:08;7.80;;;3.70;;
73382;SDS011;61600;48.126;11.542;2022-09-02T03:19:34;5.22;;;3.42;;
73382;SDS011;61600;48.126;11.542;2022-09-02T03:22:00;5.97;;;3.67;;
73382;SDS011;61600;48.126;11.542;2022-09-02T03:24:25;4.80;;;3.33;;
73382;SDS011;61600;48.126;11.542;2022-09-02T03:26:51;5.38;;;3.40;;
73382;SDS011;61600;48.126;11.542;2022-09-02T03:29:16;5.50;;;4.03;;
73382;SDS011;61600;48.126;11.542;2022-09-02T03:31:42;5.55;;;3.55;;
73382;SDS011;61600;48.126;11.542;2022-09-02T03:34:08;5.00;;;3.75;;
73382;SDS011;61600;48.126;11.542;2022-09-02T03:36:35;5.10;;;3.65;;
73382;SDS011;61600;48.126;11.542;2022-09-02T03:39:03;6.65;;;3.75;;
73382;SDS011;61600;48.126;11.542;2022-09-02T03:41:28;7.25;;;4.65;;
73382;SDS011;61600;48.126;11.542;2022-09-02T03:43:54;5.60;;;4.10;;
73382;SDS011;61600;48.126;11.542;2022-09-02T03:46:19;4.70;;;3.17;;
73382;SDS011;61600;48.126;11.542;2022-09-02T03:48:45;6.03;;;3.53;;
73382;SDS011;61600;48.126;11.542;2022-09-02T03:51:11;6.28;;;3.95;;
73382;SDS011;61600;48.126;11.542;2022-09-02T03:53:36;7.05;;;4.03;;
73382;SDS011;61600;48.126;11.542;2022-09-02T03:56:06;6.53;;;5.35;;
73382;SDS011;61600;48.126;11.542;2022-09-02T03:58:33;5.93;;;4.10;;
73382;SDS011;61600;48.126;11.542;2022-09-02T04:00:58;5.13;;;4.10;;
73382;SDS011;61600;48.126;11.542;2022-09-02T04:03:24;5.43;;;3.63;;
73382;SDS011;61600;48.126;11.542;2022-09-02T04:05:49;5.47;;;3.63;;
73382;SDS011;61600;48.126;11.542;2022-09-02T04:08:17;11.43;;;4.07;;
73382;SDS011;61600;48.126;11.542;2022-09-02T04:10:42;6.57;;;4.20;;
73382;SDS011;61600;48.126;11.542;2022-09-02T04:13:08;10.60;;;4.20;;
73382;SDS011;61600;48.126;11.542;2022-09-02T04:15:49;5.53;;;3.85;;
73382;SDS011;61600;48.126;11.542;2022-09-02T04:18:15;6.32;;;4.35;;
73382;SDS011;61600;48.126;11.542;2022-09-02T04:20:41;5.90;;;4.10;;
73382;SDS011;61600;48.126;11.542;2022-09-02T04:23:07;8.77;;;4.55;;
73382;SDS011;61600;48.126;11.542;2022-09-02T04:25:33;5.85;;;4.10;;
73382;SDS011;61600;48.126;11.542;2022-09-02T04:28:02;7.60;;;4.03;;
73382;SDS011;61600;48.126;11.542;2022-09-02T04:30:31;8.02;;;4.45;;
73382;SDS011;61600;48.126;11.542;2022-09-02T04:33:00;9.15;;;3.95;;
73382;SDS011;61600;48.126;11.542;2022-09-02T04:35:28;6.72;;;4.32;;
73382;SDS011;61600;48.126;11.542;2022-09-02T04:37:54;7.72;;;5.05;;
73382;SDS011;61600;48.126;11.542;2022-09-02T04:40:19;8.85;;;4.53;;
73382;SDS011;61600;48.126;11.542;2022-09-02T04:42:45;5.32;;;4.30;;
73382;SDS011;61600;48.126;11.542;2022-09-02T04:45:11;6.50;;;4.15;;
73382;SDS011;61600;48.126;11.542;2022-09-02T04:47:37;6.75;;;4.57;;
73382;SDS011;61600;48.126;11.542;2022-09-02T04:50:02;7.28;;;4.60;;
73382;SDS011;61600;48.126;11.542;2022-09-02T04:52:28;6.18;;;4.40;;
73382;SDS011;61600;48.126;11.542;2022-09-02T04:54:54;8.05;;;4.60;;
73382;SDS011;61600;48.126;11.542;2022-09-02T04:57:20;7.13;;;4.63;;
73382;SDS011;61600;48.126;11.542;2022-09-02T04:59:45;8.27;;;4.15;;
73382;SDS011;61600;48.126;11.542;2022-09-02T05:02:11;8.95;;;5.15;;
73382;SDS011;61600;48.126;11.542;2022-09-02T05:04:37;6.53;;;4.32;;
73382;SDS011;61600;48.126;11.542;2022-09-02T05:07:02;6.03;;;4.30;;
73382;SDS011;61600;48.126;11.542;2022-09-02T05:09:29;11.07;;;4.45;;
73382;SDS011;61600;48.126;11.542;2022-09-02T05:11:55;6.68;;;4.78;;
73382;SDS011;61600;48.126;11.542;2022-09-02T05:14:27;6.20;;;4.20;;
73382;SDS011;61600;48.126;11.542;2022-09-02T05:16:53;6.77;;;5.13;;
73382;SDS011;61600;48.126;11.542;2022-09-02T05:19:20;8.40;;;4.22;;
73382;SDS011;61600;48.126;11.542;2022-09-02T05:21:47;7.38;;;4.65;;
73382;SDS011;61600;48.126;11.542;2022-09-02T05:24:13;5.85;;;4.43;;
73382;SDS011;61600;48.126;11.542;2022-09-02T05:26:38;6.43;;;4.50;;
73382;SDS011;61600;48.126;11.542;2022-09-02T05:29:07;8.90;;;5.00;;
73382;SDS011;61600;48.126;11.542;2022-09-02T05:31:37;11.60;;;5.28;;
73382;SDS011;61600;48.126;11.542;2022-09-02T05:34:03;6.43;;;4.90;;
73382;SDS011;61600;48.126;11.542;2022-09-02T05:36:28;7.25;;;4.65;;
73382;SDS011;61600;48.126;11.542;2022-09-02T05:38:55;8.55;;;5.05;;
73382;SDS011;61600;48.126;11.542;2022-09-02T05:41:22;8.02;;;4.65;;
73382;SDS011;61600;48.126;11.542;2022-09-02T05:43:49;7.65;;;4.82;;
73382;SDS011;61600;48.126;11.542;2022-09-02T05:46:16;8.88;;;4.97;;
73382;SDS011;61600;48.126;11.542;2022-09-02T05:48:43;6.53;;;4.53;;
73382;SDS011;61600;48.126;11.542;2022-09-02T05:51:27;7.60;;;4.97;;
73382;SDS011;61600;48.126;11.542;2022-09-02T05:53:53;10.45;;;4.78;;
73382;SDS011;61600;48.126;11.542;2022-09-02T05:56:19;12.13;;;4.70;;
73382;SDS011;61600;48.126;11.542;2022-09-02T05:58:45;10.73;;;5.18;;
73382;SDS011;61600;48.126;11.542;2022-09-02T06:01:11;7.73;;;4.67;;
73382;SDS011;61600;48.126;11.542;2022-09-02T06:03:37;7.47;;;4.20;;
73382;SDS011;61600;48.126;11.542;2022-09-02T06:06:03;7.15;;;4.70;;
73382;SDS011;61600;48.126;11.542;2022-09-02T06:08:29;10.13;;;4.70;;
73382;SDS011;61600;48.126;11.542;2022-09-02T06:10:55;8.30;;;4.43;;
73382;SDS011;61600;48.126;11.542;2022-09-02T06:13:21;8.68;;;4.97;;
73382;SDS011;61600;48.126;11.542;2022-09-02T06:15:47;6.53;;;4.22;;
73382;SDS011;61600;48.126;11.542;2022-09-02T06:18:14;6.57;;;4.22;;
73382;SDS011;61600;48.126;11.542;2022-09-02T06:20:44;7.60;;;4.90;;
73382;SDS011;61600;48.126;11.542;2022-09-02T06:23:10;6.15;;;4.40;;
73382;SDS011;61600;48.126;11.542;2022-09-02T06:25:37;6.78;;;4.60;;
73382;SDS011;61600;48.126;11.542;2022-09-02T06:28:02;7.53;;;4.00;;
73382;SDS011;61600;48.126;11.542;2022-09-02T06:30:28;5.97;;;4.30;;
73382;SDS011;61600;48.126;11.542;2022-09-02T06:32:54;6.20;;;4.28;;
73382;SDS011;61600;48.126;11.542;2022-09-02T06:35:20;7.70;;;4.30;;
73382;SDS011;61600;48.126;11.542;2022-09-02T06:42:39;7.57;;;3.67;;
73382;SDS011;61600;48.126;11.542;2022-09-02T06:45:05;4.90;;;3.50;;
73382;SDS011;61600;48.126;11.542;2022-09-02T06:47:31;6.93;;;4.10;;
73382;SDS011;61600;48.126;11.542;2022-09-02T06:49:56;4.80;;;3.70;;
73382;SDS011;61600;48.126;11.542;2022-09-02T06:52:22;6.53;;;3.97;;
73382;SDS011;61600;48.126;11.542;2022-09-02T06:54:48;6.00;;;3.97;;
73382;SDS011;61600;48.126;11.542;2022-09-02T06:57:15;7.25;;;3.83;;
73382;SDS011;61600;48.126;11.542;2022-09-02T06:59:40;6.00;;;3.85;;
73382;SDS011;61600;48.126;11.542;2022-09-02T07:02:06;4.83;;;3.53;;
73382;SDS011;61600;48.126;11.542;2022-09-02T07:04:32;8.43;;;4.10;;
73382;SDS011;61600;48.126;11.542;2022-09-02T07:07:16;11.88;;;4.10;;
73382;SDS011;61600;48.126;11.542;2022-09-02T07:09:42;14.68;;;4.35;;
73382;SDS011;61600;48.126;11.542;2022-09-02T07:12:07;6.47;;;3.60;;
73382;SDS011;61600;48.126;11.542;2022-09-02T07:14:37;5.32;;;3.70;;
73382;SDS011;61600;48.126;11.542;2022-09-02T07:17:03;7.68;;;3.60;;
73382;SDS011;61600;48.126;11.542;2022-09-02T07:19:28;10.90;;;3.75;;
73382;SDS011;61600;48.126;11.542;2022-09-02T07:21:54;7.35;;;3.00;;
73382;SDS011;61600;48.126;11.542;2022-09-02T07:24:20;4.55;;;3.33;;
73382;SDS011;61600;48.126;11.542;2022-09-02T07:26:47;6.15;;;3.00;;
73382;SDS011;61600;48.126;11.542;2022-09-02T07:29:13;5.50;;;3.80;;
73382;SDS011;61600;48.126;11.542;2022-09-02T07:31:39;5.43;;;3.55;;
73382;SDS011;61600;48.126;11.542;2022-09-02T07:34:06;4.40;;;3.15;;
73382;SDS011;61600;48.126;11.542;2022-09-02T07:36:32;6.45;;;3.28;;
73382;SDS011;61600;48.126;11.542;2022-09-02T07:38:59;5.70;;;3.72;;
73382;SDS011;61600;48.126;11.542;2022-09-02T07:41:25;7.95;;;3.72;;
73382;SDS011;61600;48.126;11.542;2022-09-02T07:43:50;4.45;;;2.97;;
73382;SDS011;61600;48.126;11.542;2022-09-02T07:46:16;8.70;;;3.47;;
73382;SDS011;61600;48.126;11.542;2022-09-02T07:48:42;10.77;;;4.05;;
73382;SDS011;61600;48.126;11.542;2022-09-02T07:51:08;4.63;;;3.50;;
73382;SDS011;61600;48.126;11.542;2022-09-02T07:53:34;6.63;;;3.45;;
73382;SDS011;61600;48.126;11.542;2022-09-02T07:56:00;7.30;;;2.80;;
73382;SDS011;61600;48.126;11.542;2022-09-02T07:58:26;5.35;;;2.78;;
73382;SDS011;61600;48.126;11.542;2022-09-02T08:00:52;5.78;;;3.08;;
73382;SDS011;61600;48.126;11.542;2022-09-02T08:03:22;6.75;;;2.67;;
73382;SDS011;61600;48.126;11.542;2022-09-02T08:08:14;5.40;;;2.80;;
73382;SDS011;61600;48.126;11.542;2022-09-02T08:13:05;4.63;;;2.70;;
73382;SDS011;61600;48.126;11.542;2022-09-02T08:15:31;5.40;;;2.85;;
73382;SDS011;61600;48.126;11.542;2022-09-02T08:17:57;3.00;;;2.15;;
73382;SDS011;61600;48.126;11.542;2022-09-02T08:20:24;12.30;;;2.63;;
73382;SDS011;61600;48.126;11.542;2022-09-02T08:22:52;4.35;;;2.17;;
73382;SDS011;61600;48.126;11.542;2022-09-02T08:25:18;4.03;;;1.98;;
73382;SDS011;61600;48.126;11.542;2022-09-02T08:27:44;4.18;;;1.98;;
73382;SDS011;61600;48.126;11.542;2022-09-02T08:30:10;4.53;;;1.92;;
73382;SDS011;61600;48.126;11.542;2022-09-02T08:32:36;2.90;;;1.70;;
73382;SDS011;61600;48.126;11.542;2022-09-02T08:35:02;3.88;;;1.90;;
73382;SDS011;61600;48.126;11.542;2022-09-02T08:37:29;3.63;;;1.88;;
73382;SDS011;61600;48.126;11.542;2022-09-02T08:39:58;2.58;;;1.63;;
73382;SDS011;61600;48.126;11.542;2022-09-02T08:42:35;3.28;;;1.50;;
73382;SDS011;61600;48.126;11.542;2022-09-02T08:47:32;5.22;;;1.70;;
73382;SDS011;61600;48.126;11.542;2022-09-02T08:50:00;3.17;;;1.70;;
73382;SDS011;61600;48.126;11.542;2022-09-02T08:52:30;3.55;;;1.42;;
73382;SDS011;61600;48.126;11.542;2022-09-02T08:54:59;4.40;;;1.70;;
73382;SDS011;61600;48.126;11.542;2022-09-02T08:57:25;2.85;;;1.50;;
73382;SDS011;61600;48.126;11.542;2022-09-02T09:02:23;2.57;;;1.27;;
73382;SDS011;61600;48.126;11.542;2022-09-02T09:12:22;3.42;;;1.30;;
73382;SDS011;61600;48.126;11.542;2022-09-02T09:17:27;2.90;;;1.48;;
73382;SDS011;61600;48.126;11.542;2022-09-02T09:19:54;3.33;;;1.35;;
73382;SDS011;61600;48.126;11.542;2022-09-02T09:22:56;3.38;;;1.02;;
73382;SDS011;61600;48.126;11.542;2022-09-02T09:27:40;3.83;;;1.48;;
73382;SDS011;61600;48.126;11.542;2022-09-02T09:30:06;4.13;;;1.33;;
73382;SDS011;61600;48.126;11.542;2022-09-02T09:35:00;2.60;;;1.40;;
73382;SDS011;61600;48.126;11.542;2022-09-02T09:39:55;3.05;;;1.42;;
73382;SDS011;61600;48.126;11.542;2022-09-02T09:42:29;2.80;;;1.37;;
73382;SDS011;61600;48.126;11.542;2022-09-02T09:44:55;2.53;;;1.13;;
73382;SDS011;61600;48.126;11.542;2022-09-02T09:47:21;5.05;;;1.80;;
73382;SDS011;61600;48.126;11.542;2022-09-02T09:49:48;2.72;;;1.40;;
73382;SDS011;61600;48.126;11.542;2022-09-02T09:52:27;5.95;;;1.77;;
73382;SDS011;61600;48.126;11.542;2022-09-02T09:57:38;3.60;;;1.45;;
73382;SDS011;61600;48.126;11.542;2022-09-02T10:02:29;2.40;;;1.40;;
73382;SDS011;61600;48.126;11.542;2022-09-02T10:05:08;1.58;;;1.20;;
73382;SDS011;61600;48.126;11.542;2022-09-02T10:07:35;2.58;;;1.40;;
73382;SDS011;61600;48.126;11.542;2022-09-02T10:10:08;2.60;;;1.60;;
73382;SDS011;61600;48.126;11.542;2022-09-02T10:12:33;5.43;;;2.15;;
73382;SDS011;61600;48.126;11.542;2022-09-02T10:14:59;4.40;;;1.33;;
73382;SDS011;61600;48.126;11.542;2022-09-02T10:17:36;2.60;;;1.27;;
73382;SDS011;61600;48.126;11.542;2022-09-02T10:20:16;2.58;;;1.48;;
73382;SDS011;61600;48.126;11.542;2022-09-02T10:27:57;2.33;;;1.50;;
73382;SDS011;61600;48.126;11.542;2022-09-02T10:30:30;2.08;;;1.38;;
73382;SDS011;61600;48.126;11.542;2022-09-02T10:33:00;3.83;;;1.40;;
73382;SDS011;61600;48.126;11.542;2022-09-02T10:35:35;3.22;;;1.63;;
73382;SDS011;61600;48.126;11.542;2022-09-02T10:40:52;3.58;;;1.40;;
73382;SDS011;61600;48.126;11.542;2022-09-02T10:45:48;2.58;;;1.40;;
73382;SDS011;61600;48.126;11.542;2022-09-02T10:56:00;2.35;;;1.23;;
73382;SDS011;61600;48.126;11.542;2022-09-02T11:00:56;4.57;;;1.40;;
73382;SDS011;61600;48.126;11.542;2022-09-02T11:03:29;2.92;;;1.40;;
73382;SDS011;61600;48.126;11.542;2022-09-02T11:08:26;2.63;;;1.10;;
73382;SDS011;61600;48.126;11.542;2022-09-02T11:13:29;3.67;;;1.23;;
73382;SDS011;61600;48.126;11.542;2022-09-02T11:15:57;3.17;;;1.20;;
73382;SDS011;61600;48.126;11.542;2022-09-02T11:21:33;2.25;;;1.17;;
73382;SDS011;61600;48.126;11.542;2022-09-02T11:26:23;3.55;;;1.20;;
73382;SDS011;61600;48.126;11.542;2022-09-02T11:29:00;1.55;;;0.80;;
73382;SDS011;61600;48.126;11.542;2022-09-02T11:31:43;3.20;;;1.10;;
73382;SDS011;61600;48.126;11.542;2022-09-02T11:34:16;1.85;;;0.82;;
73382;SDS011;61600;48.126;11.542;2022-09-02T11:36:43;3.10;;;1.10;;
73382;SDS011;61600;48.126;11.542;2022-09-02T11:39:31;1.95;;;1.00;;
73382;SDS011;61600;48.126;11.542;2022-09-02T11:52:55;1.65;;;0.90;;
73382;SDS011;61600;48.126;11.542;2022-09-02T11:57:51;4.17;;;1.20;;
73382;SDS011;61600;48.126;11.542;2022-09-02T12:00:24;6.68;;;1.27;;
73382;SDS011;61600;48.126;11.542;2022-09-02T12:02:54;2.95;;;0.93;;
73382;SDS011;61600;48.126;11.542;2022-09-02T12:07:54;2.45;;;1.00;;
73382;SDS011;61600;48.126;11.542;2022-09-02T12:13:05;4.78;;;1.80;;
73382;SDS011;61600;48.126;11.542;2022-09-02T12:15:32;4.07;;;1.42;;
73382;SDS011;61600;48.126;11.542;2022-09-02T12:23:10;2.87;;;1.00;;
73382;SDS011;61600;48.126;11.542;2022-09-02T12:25:56;2.30;;;1.10;;
73382;SDS011;61600;48.126;11.542;2022-09-02T12:28:25;3.88;;;1.20;;
73382;SDS011;61600;48.126;11.542;2022-09-02T12:35:54;4.18;;;1.20;;
73382;SDS011;61600;48.126;11.542;2022-09-02T12:38:23;2.65;;;1.20;;
73382;SDS011;61600;48.126;11.542;2022-09-02T12:46:15;4.70;;;1.00;;
73382;SDS011;61600;48.126;11.542;2022-09-02T12:48:44;2.17;;;1.02;;
73382;SDS011;61600;48.126;11.542;2022-09-02T12:51:39;2.20;;;1.00;;
73382;SDS011;61600;48.126;11.542;2022-09-02T12:53:58;1.85;;;1.13;;
73382;SDS011;61600;48.126;11.542;2022-09-02T12:56:24;2.25;;;0.90;;
73382;SDS011;61600;48.126;11.542;2022-09-02T12:58:51;3.90;;;1.10;;
73382;SDS011;61600;48.126;11.542;2022-09-02T13:06:34;3.90;;;1.00;;
73382;SDS011;61600;48.126;11.542;2022-09-02T13:17:10;3.13;;;1.08;;
73382;SDS011;61600;48.126;11.542;2022-09-02T13:32:14;2.13;;;1.20;;
73382;SDS011;61600;48.126;11.542;2022-09-02T13:39:56;4.07;;;1.88;;
73382;SDS011;61600;48.126;11.542;2022-09-02T13:44:47;1.85;;;0.98;;
73382;SDS011;61600;48.126;11.542;2022-09-02T13:47:15;3.95;;;1.10;;
73382;SDS011;61600;48.126;11.542;2022-09-02T13:49:46;3.83;;;1.40;;
73382;SDS011;61600;48.126;11.542;2022-09-02T13:52:16;3.95;;;1.10;;
73382;SDS011;61600;48.126;11.542;2022-09-02T13:54:53;1.73;;;0.98;;
73382;SDS011;61600;48.126;11.542;2022-09-02T13:57:23;4.70;;;0.90;;
73382;SDS011;61600;48.126;11.542;2022-09-02T13:59:51;3.13;;;1.13;;
73382;SDS011;61600;48.126;11.542;2022-09-02T14:02:30;3.00;;;1.20;;
73382;SDS011;61600;48.126;11.542;2022-09-02T14:07:46;1.60;;;1.00;;
73382;SDS011;61600;48.126;11.542;2022-09-02T14:10:16;3.90;;;1.50;;
73382;SDS011;61600;48.126;11.542;2022-09-02T14:12:43;3.92;;;1.00;;
73382;SDS011;61600;48.126;11.542;2022-09-02T14:15:11;2.13;;;1.17;;
73382;SDS011;61600;48.126;11.542;2022-09-02T14:17:38;4.45;;;1.38;;
73382;SDS011;61600;48.126;11.542;2022-09-02T14:22:29;2.17;;;1.30;;
73382;SDS011;61600;48.126;11.542;2022-09-02T14:27:20;4.13;;;1.63;;
73382;SDS011;61600;48.126;11.542;2022-09-02T14:29:50;3.25;;;1.48;;
73382;SDS011;61600;48.126;11.542;2022-09-02T14:32:22;2.78;;;1.20;;
73382;SDS011;61600;48.126;11.542;2022-09-02T14:34:48;3.33;;;1.50;;
73382;SDS011;61600;48.126;11.542;2022-09-02T14:37:27;2.25;;;0.95;;
73382;SDS011;61600;48.126;11.542;2022-09-02T14:40:06;1.65;;;0.95;;
73382;SDS011;61600;48.126;11.542;2022-09-02T14:45:09;2.70;;;1.00;;
73382;SDS011;61600;48.126;11.542;2022-09-02T14:47:38;1.70;;;0.98;;
73382;SDS011;61600;48.126;11.542;2022-09-02T14:50:08;3.90;;;1.02;;
73382;SDS011;61600;48.126;11.542;2022-09-02T14:52:34;3.22;;;0.98;;
73382;SDS011;61600;48.126;11.542;2022-09-02T14:55:01;4.45;;;1.13;;
73382;SDS011;61600;48.126;11.542;2022-09-02T14:57:28;4.15;;;0.95;;
73382;SDS011;61600;48.126;11.542;2022-09-02T15:00:09;1.70;;;0.88;;
73382;SDS011;61600;48.126;11.542;2022-09-02T15:02:36;2.90;;;1.10;;
73382;SDS011;61600;48.126;11.542;2022-09-02T15:05:05;3.80;;;0.82;;
73382;SDS011;61600;48.126;11.542;2022-09-02T15:07:32;1.75;;;0.90;;
73382;SDS011;61600;48.126;11.542;2022-09-02T15:09:58;2.33;;;0.90;;
73382;SDS011;61600;48.126;11.542;2022-09-02T15:12:27;2.70;;;1.00;;
73382;SDS011;61600;48.126;11.542;2022-09-02T15:14:55;1.58;;;0.90;;
73382;SDS011;61600;48.126;11.542;2022-09-02T15:17:21;2.35;;;1.02;;
73382;SDS011;61600;48.126;11.542;2022-09-02T15:19:50;1.35;;;0.90;;
73382;SDS011;61600;48.126;11.542;2022-09-02T15:22:16;1.48;;;0.90;;
73382;SDS011;61600;48.126;11.542;2022-09-02T15:24:42;1.77;;;0.93;;
73382;SDS011;61600;48.126;11.542;2022-09-02T15:27:08;2.38;;;1.08;;
73382;SDS011;61600;48.126;11.542;2022-09-02T15:29:34;2.85;;;1.10;;
73382;SDS011;61600;48.126;11.542;2022-09-02T15:31:59;4.72;;;1.85;;
73382;SDS011;61600;48.126;11.542;2022-09-02T15:34:27;3.05;;;1.20;;
73382;SDS011;61600;48.126;11.542;2022-09-02T15:36:53;7.45;;;1.30;;
73382;SDS011;61600;48.126;11.542;2022-09-02T15:39:19;1.50;;;0.80;;
73382;SDS011;61600;48.126;11.542;2022-09-02T15:41:47;3.20;;;0.95;;
73382;SDS011;61600;48.126;11.542;2022-09-02T15:44:13;3.42;;;1.00;;
73382;SDS011;61600;48.126;11.542;2022-09-02T15:46:39;2.70;;;1.02;;
73382;SDS011;61600;48.126;11.542;2022-09-02T15:49:06;2.13;;;1.00;;
73382;SDS011;61600;48.126;11.542;2022-09-02T15:51:35;2.38;;;1.10;;
73382;SDS011;61600;48.126;11.542;2022-09-02T15:54:06;2.08;;;1.33;;
73382;SDS011;61600;48.126;11.542;2022-09-02T15:56:33;2.25;;;0.85;;
73382;SDS011;61600;48.126;11.542;2022-09-02T15:59:03;2.33;;;0.95;;
73382;SDS011;61600;48.126;11.542;2022-09-02T16:01:30;4.15;;;1.05;;
73382;SDS011;61600;48.126;11.542;2022-09-02T16:03:55;6.38;;;1.40;;
73382;SDS011;61600;48.126;11.542;2022-09-02T16:06:22;2.00;;;1.00;;
73382;SDS011;61600;48.126;11.542;2022-09-02T16:08:48;2.55;;;1.20;;
73382;SDS011;61600;48.126;11.542;2022-09-02T16:11:13;1.90;;;0.95;;
73382;SDS011;61600;48.126;11.542;2022-09-02T16:13:39;4.82;;;1.10;;
73382;SDS011;61600;48.126;11.542;2022-09-02T16:16:06;3.83;;;1.10;;
73382;SDS011;61600;48.126;11.542;2022-09-02T16:18:32;3.47;;;1.20;;
73382;SDS011;61600;48.126;11.542;2022-09-02T16:20:58;2.42;;;1.00;;
73382;SDS011;61600;48.126;11.542;2022-09-02T16:23:24;2.70;;;0.90;;
73382;SDS011;61600;48.126;11.542;2022-09-02T16:28:38;1.60;;;0.90;;
73382;SDS011;61600;48.126;11.542;2022-09-02T16:31:05;2.13;;;1.80;;
73382;SDS011;61600;48.126;11.542;2022-09-02T16:33:31;3.22;;;1.23;;
73382;SDS011;61600;48.126;11.542;2022-09-02T16:35:56;3.80;;;1.42;;
73382;SDS011;61600;48.126;11.542;2022-09-02T16:38:22;3.28;;;1.30;;
73382;SDS011;61600;48.126;11.542;2022-09-02T16:40:49;2.20;;;0.95;;
73382;SDS011;61600;48.126;11.542;2022-09-02T16:43:18;2.15;;;0.82;;
73382;SDS011;61600;48.126;11.542;2022-09-02T16:45:49;1.98;;;1.13;;
73382;SDS011;61600;48.126;11.542;2022-09-02T16:48:18;2.42;;;1.05;;
73382;SDS011;61600;48.126;11.542;2022-09-02T16:50:45;2.45;;;1.10;;
73382;SDS011;61600;48.126;11.542;2022-09-02T16:53:11;1.88;;;1.08;;
73382;SDS011;61600;48.126;11.542;2022-09-02T16:55:41;2.58;;;0.95;;
73382;SDS011;61600;48.126;11.542;2022-09-02T16:58:07;2.17;;;1.10;;
73382;SDS011;61600;48.126;11.542;2022-09-02T17:00:37;1.67;;;1.00;;
73382;SDS011;61600;48.126;11.542;2022-09-02T17:03:09;3.20;;;1.00;;
73382;SDS011;61600;48.126;11.542;2022-09-02T17:05:36;2.53;;;1.20;;
73382;SDS011;61600;48.126;11.542;2022-09-02T17:10:28;2.47;;;1.23;;